Impacts TAF Board INFO
FOR SITUATIONAL AWARENESS. NOT TO BE USED FOR FLIGHT PLANNING PURPOSES.
IDs:

KAXN - Alexandria/Chandler, MN, US

Issued at 2327 UTC 15 Dec 2017
Updated at 2344 UTC 15 Dec 2017
Potential Impact None Slight Moderate High
Time<<16/12Z 16/13Z 16/14Z 16/15Z 16/16Z 16/17Z 16/18Z 16/19Z 16/20Z 16/21Z 16/22Z 16/23Z 17/00Z>>
Type PRVL PRVL PRVL PRVL PRVL PRVL PRVL PRVL PRVL PRVL PRVL PRVL
VIS >6 >6 >6 >6 >6 >6 >6 >6 >6 >6 >6 >6
CIG 15 15 15 15 15 15 15 15 15 20 20 20
Cover OVC OVC OVC OVC OVC OVC OVC OVC OVC OVC OVC OVC
FltCat MVFR MVFR MVFR MVFR MVFR MVFR MVFR MVFR MVFR MVFR MVFR MVFR
WX VCSH VCSH VCSH VCSH VCSH VCSH -- -- -- -- -- --
WDir 110 110 110 110 110 110 120 120 120 VRB VRB VRB
WSpd 7 7 7 7 7 7 5 5 5 3 3 3
WGst -- -- -- -- -- -- -- -- -- -- -- --

Raw TAF
KAXN 152327Z 1600/1624 13006KT P6SM OVC008
  TEMPO 1600/1604 3SM -SN OVC015
  FM160400 12007KT P6SM OVC030
  FM161200 11007KT P6SM VCSH OVC015
  FM161800 12005KT P6SM OVC015
  FM162100 VRB03KT P6SM OVC020


METAR Board
Radar Display
Forecast Discussion

FOR SITUATIONAL AWARENESS. NOT TO BE USED FOR FLIGHT PLANNING PURPOSES.